sensor_id;sensor_type;location;lat;lon;timestamp;P1;durP1;ratioP1;P2;durP2;ratioP2
5351;SDS011;2698;51.454;6.736;2023-08-07T00:01:40;15.20;;;3.50;;
5351;SDS011;2698;51.454;6.736;2023-08-07T00:04:08;7.90;;;3.00;;
5351;SDS011;2698;51.454;6.736;2023-08-07T00:06:35;6.33;;;2.67;;
5351;SDS011;2698;51.454;6.736;2023-08-07T00:09:02;8.43;;;3.20;;
5351;SDS011;2698;51.454;6.736;2023-08-07T00:11:29;14.17;;;3.67;;
5351;SDS011;2698;51.454;6.736;2023-08-07T00:13:57;13.17;;;3.57;;
5351;SDS011;2698;51.454;6.736;2023-08-07T00:16:25;13.30;;;3.03;;
5351;SDS011;2698;51.454;6.736;2023-08-07T00:18:52;6.03;;;2.50;;
5351;SDS011;2698;51.454;6.736;2023-08-07T00:21:21;16.93;;;2.83;;
5351;SDS011;2698;51.454;6.736;2023-08-07T00:23:48;8.33;;;3.10;;
5351;SDS011;2698;51.454;6.736;2023-08-07T00:26:15;10.43;;;3.03;;
5351;SDS011;2698;51.454;6.736;2023-08-07T00:28:42;7.83;;;2.83;;
5351;SDS011;2698;51.454;6.736;2023-08-07T00:31:09;13.63;;;2.83;;
5351;SDS011;2698;51.454;6.736;2023-08-07T00:33:38;15.70;;;3.60;;
5351;SDS011;2698;51.454;6.736;2023-08-07T00:36:05;16.50;;;4.73;;
5351;SDS011;2698;51.454;6.736;2023-08-07T00:38:33;23.27;;;2.93;;
5351;SDS011;2698;51.454;6.736;2023-08-07T00:41:00;24.03;;;3.70;;
5351;SDS011;2698;51.454;6.736;2023-08-07T00:43:27;14.33;;;3.13;;
5351;SDS011;2698;51.454;6.736;2023-08-07T00:45:54;15.60;;;3.23;;
5351;SDS011;2698;51.454;6.736;2023-08-07T00:48:21;6.50;;;2.90;;
5351;SDS011;2698;51.454;6.736;2023-08-07T00:50:50;10.30;;;2.57;;
5351;SDS011;2698;51.454;6.736;2023-08-07T00:53:17;12.53;;;3.30;;
5351;SDS011;2698;51.454;6.736;2023-08-07T00:55:45;11.13;;;2.70;;
5351;SDS011;2698;51.454;6.736;2023-08-07T00:58:12;16.40;;;4.00;;
5351;SDS011;2698;51.454;6.736;2023-08-07T01:00:40;6.63;;;2.43;;
5351;SDS011;2698;51.454;6.736;2023-08-07T01:03:07;7.17;;;3.00;;
5351;SDS011;2698;51.454;6.736;2023-08-07T01:05:34;6.20;;;2.80;;
5351;SDS011;2698;51.454;6.736;2023-08-07T01:08:03;10.03;;;4.10;;
5351;SDS011;2698;51.454;6.736;2023-08-07T01:10:33;9.20;;;3.57;;
5351;SDS011;2698;51.454;6.736;2023-08-07T01:13:03;10.00;;;3.00;;
5351;SDS011;2698;51.454;6.736;2023-08-07T01:15:31;19.47;;;3.67;;
5351;SDS011;2698;51.454;6.736;2023-08-07T01:18:00;10.23;;;3.33;;
5351;SDS011;2698;51.454;6.736;2023-08-07T01:20:29;10.30;;;3.50;;
5351;SDS011;2698;51.454;6.736;2023-08-07T01:22:57;16.00;;;3.77;;
5351;SDS011;2698;51.454;6.736;2023-08-07T01:25:24;8.10;;;3.00;;
5351;SDS011;2698;51.454;6.736;2023-08-07T01:27:54;11.90;;;3.90;;
5351;SDS011;2698;51.454;6.736;2023-08-07T01:30:26;6.60;;;2.67;;
5351;SDS011;2698;51.454;6.736;2023-08-07T01:32:58;8.60;;;2.47;;
5351;SDS011;2698;51.454;6.736;2023-08-07T01:35:27;18.53;;;4.23;;
5351;SDS011;2698;51.454;6.736;2023-08-07T01:37:56;7.87;;;2.53;;
5351;SDS011;2698;51.454;6.736;2023-08-07T01:40:25;5.27;;;2.67;;
5351;SDS011;2698;51.454;6.736;2023-08-07T01:42:52;7.33;;;2.50;;
5351;SDS011;2698;51.454;6.736;2023-08-07T01:45:23;12.00;;;3.03;;
5351;SDS011;2698;51.454;6.736;2023-08-07T01:47:50;9.00;;;3.07;;
5351;SDS011;2698;51.454;6.736;2023-08-07T01:50:17;6.37;;;2.63;;
5351;SDS011;2698;51.454;6.736;2023-08-07T01:52:44;7.03;;;3.10;;
5351;SDS011;2698;51.454;6.736;2023-08-07T01:55:12;10.53;;;3.50;;
5351;SDS011;2698;51.454;6.736;2023-08-07T01:57:40;8.70;;;3.27;;
5351;SDS011;2698;51.454;6.736;2023-08-07T02:00:08;11.73;;;3.30;;
5351;SDS011;2698;51.454;6.736;2023-08-07T02:02:35;5.03;;;2.60;;
5351;SDS011;2698;51.454;6.736;2023-08-07T02:05:02;5.00;;;3.10;;
5351;SDS011;2698;51.454;6.736;2023-08-07T02:07:30;6.73;;;2.40;;
5351;SDS011;2698;51.454;6.736;2023-08-07T02:09:57;11.80;;;3.40;;
5351;SDS011;2698;51.454;6.736;2023-08-07T02:12:24;7.93;;;3.23;;
5351;SDS011;2698;51.454;6.736;2023-08-07T02:14:54;7.43;;;2.40;;
5351;SDS011;2698;51.454;6.736;2023-08-07T02:17:21;7.43;;;3.30;;
5351;SDS011;2698;51.454;6.736;2023-08-07T02:19:48;12.20;;;3.27;;
5351;SDS011;2698;51.454;6.736;2023-08-07T02:22:15;8.93;;;3.30;;
5351;SDS011;2698;51.454;6.736;2023-08-07T02:24:42;10.20;;;2.70;;
5351;SDS011;2698;51.454;6.736;2023-08-07T02:27:09;9.00;;;3.17;;
5351;SDS011;2698;51.454;6.736;2023-08-07T02:29:36;10.70;;;2.77;;
5351;SDS011;2698;51.454;6.736;2023-08-07T02:32:05;7.10;;;3.50;;
5351;SDS011;2698;51.454;6.736;2023-08-07T02:34:32;9.80;;;3.23;;
5351;SDS011;2698;51.454;6.736;2023-08-07T02:36:59;13.33;;;2.73;;
5351;SDS011;2698;51.454;6.736;2023-08-07T02:39:26;10.93;;;4.10;;
5351;SDS011;2698;51.454;6.736;2023-08-07T02:41:53;7.23;;;3.43;;
5351;SDS011;2698;51.454;6.736;2023-08-07T02:44:20;3.77;;;2.90;;
5351;SDS011;2698;51.454;6.736;2023-08-07T02:46:49;10.43;;;3.13;;
5351;SDS011;2698;51.454;6.736;2023-08-07T02:49:17;11.27;;;3.20;;
5351;SDS011;2698;51.454;6.736;2023-08-07T02:51:44;12.13;;;3.17;;
5351;SDS011;2698;51.454;6.736;2023-08-07T02:54:11;10.83;;;3.13;;
5351;SDS011;2698;51.454;6.736;2023-08-07T02:56:38;8.60;;;3.43;;
5351;SDS011;2698;51.454;6.736;2023-08-07T02:59:05;12.93;;;3.00;;
5351;SDS011;2698;51.454;6.736;2023-08-07T03:01:32;26.43;;;4.00;;
5351;SDS011;2698;51.454;6.736;2023-08-07T03:04:00;14.70;;;4.37;;
5351;SDS011;2698;51.454;6.736;2023-08-07T03:06:28;25.80;;;3.40;;
5351;SDS011;2698;51.454;6.736;2023-08-07T03:08:55;10.80;;;3.83;;
5351;SDS011;2698;51.454;6.736;2023-08-07T03:11:22;12.10;;;3.40;;
5351;SDS011;2698;51.454;6.736;2023-08-07T03:13:49;15.07;;;4.07;;
5351;SDS011;2698;51.454;6.736;2023-08-07T03:16:16;10.20;;;3.60;;
5351;SDS011;2698;51.454;6.736;2023-08-07T03:18:44;10.23;;;2.93;;
5351;SDS011;2698;51.454;6.736;2023-08-07T03:21:11;22.17;;;4.10;;
5351;SDS011;2698;51.454;6.736;2023-08-07T03:23:40;14.40;;;4.67;;
5351;SDS011;2698;51.454;6.736;2023-08-07T03:26:07;14.03;;;3.50;;
5351;SDS011;2698;51.454;6.736;2023-08-07T03:28:35;15.40;;;4.37;;
5351;SDS011;2698;51.454;6.736;2023-08-07T03:31:03;20.77;;;3.07;;
5351;SDS011;2698;51.454;6.736;2023-08-07T03:33:30;18.83;;;4.33;;
5351;SDS011;2698;51.454;6.736;2023-08-07T03:35:57;8.53;;;3.97;;
5351;SDS011;2698;51.454;6.736;2023-08-07T03:38:25;18.70;;;3.70;;
5351;SDS011;2698;51.454;6.736;2023-08-07T03:40:53;16.23;;;4.30;;
5351;SDS011;2698;51.454;6.736;2023-08-07T03:43:20;17.53;;;3.80;;
5351;SDS011;2698;51.454;6.736;2023-08-07T03:45:47;10.93;;;3.40;;
5351;SDS011;2698;51.454;6.736;2023-08-07T03:48:14;24.00;;;5.23;;
5351;SDS011;2698;51.454;6.736;2023-08-07T03:50:41;16.33;;;4.37;;
5351;SDS011;2698;51.454;6.736;2023-08-07T03:53:09;14.90;;;5.30;;
5351;SDS011;2698;51.454;6.736;2023-08-07T03:55:36;22.47;;;3.67;;
5351;SDS011;2698;51.454;6.736;2023-08-07T03:58:04;9.37;;;3.93;;
5351;SDS011;2698;51.454;6.736;2023-08-07T04:00:31;12.63;;;3.93;;
5351;SDS011;2698;51.454;6.736;2023-08-07T04:02:58;14.97;;;4.00;;
5351;SDS011;2698;51.454;6.736;2023-08-07T04:05:25;11.40;;;3.50;;
5351;SDS011;2698;51.454;6.736;2023-08-07T04:07:52;15.17;;;3.67;;
5351;SDS011;2698;51.454;6.736;2023-08-07T04:10:19;24.70;;;4.80;;
5351;SDS011;2698;51.454;6.736;2023-08-07T04:12:47;15.87;;;4.73;;
5351;SDS011;2698;51.454;6.736;2023-08-07T04:15:16;12.67;;;3.70;;
5351;SDS011;2698;51.454;6.736;2023-08-07T04:17:43;16.67;;;4.50;;
5351;SDS011;2698;51.454;6.736;2023-08-07T04:20:10;11.93;;;4.27;;
5351;SDS011;2698;51.454;6.736;2023-08-07T04:22:37;18.43;;;3.33;;
5351;SDS011;2698;51.454;6.736;2023-08-07T04:25:05;14.97;;;5.17;;
5351;SDS011;2698;51.454;6.736;2023-08-07T04:27:32;25.63;;;3.80;;
5351;SDS011;2698;51.454;6.736;2023-08-07T04:29:59;17.57;;;3.60;;
5351;SDS011;2698;51.454;6.736;2023-08-07T04:32:28;16.23;;;3.83;;
5351;SDS011;2698;51.454;6.736;2023-08-07T04:34:55;14.43;;;4.00;;
5351;SDS011;2698;51.454;6.736;2023-08-07T04:37:22;11.90;;;3.60;;
5351;SDS011;2698;51.454;6.736;2023-08-07T04:39:49;24.43;;;4.87;;
5351;SDS011;2698;51.454;6.736;2023-08-07T04:42:16;22.20;;;5.30;;
5351;SDS011;2698;51.454;6.736;2023-08-07T04:44:43;10.77;;;4.43;;
5351;SDS011;2698;51.454;6.736;2023-08-07T04:47:11;14.87;;;5.00;;
5351;SDS011;2698;51.454;6.736;2023-08-07T04:49:39;15.13;;;3.97;;
5351;SDS011;2698;51.454;6.736;2023-08-07T04:52:06;10.23;;;4.80;;
5351;SDS011;2698;51.454;6.736;2023-08-07T04:54:33;21.33;;;5.90;;
5351;SDS011;2698;51.454;6.736;2023-08-07T04:57:01;11.70;;;4.93;;
5351;SDS011;2698;51.454;6.736;2023-08-07T04:59:28;8.63;;;3.57;;
5351;SDS011;2698;51.454;6.736;2023-08-07T05:01:56;12.43;;;3.73;;
5351;SDS011;2698;51.454;6.736;2023-08-07T05:04:23;16.10;;;5.10;;
5351;SDS011;2698;51.454;6.736;2023-08-07T05:06:52;16.53;;;3.20;;
5351;SDS011;2698;51.454;6.736;2023-08-07T05:09:19;19.07;;;3.90;;
5351;SDS011;2698;51.454;6.736;2023-08-07T05:11:46;14.77;;;4.00;;
5351;SDS011;2698;51.454;6.736;2023-08-07T05:14:13;20.33;;;5.10;;
5351;SDS011;2698;51.454;6.736;2023-08-07T05:16:40;17.43;;;4.67;;
5351;SDS011;2698;51.454;6.736;2023-08-07T05:19:07;11.90;;;4.20;;
5351;SDS011;2698;51.454;6.736;2023-08-07T05:21:34;13.27;;;4.63;;
5351;SDS011;2698;51.454;6.736;2023-08-07T05:24:03;12.40;;;3.80;;
5351;SDS011;2698;51.454;6.736;2023-08-07T05:26:30;11.77;;;4.37;;
5351;SDS011;2698;51.454;6.736;2023-08-07T05:28:57;19.93;;;4.53;;
5351;SDS011;2698;51.454;6.736;2023-08-07T05:31:25;15.63;;;4.47;;
5351;SDS011;2698;51.454;6.736;2023-08-07T05:33:52;9.20;;;4.23;;
5351;SDS011;2698;51.454;6.736;2023-08-07T05:36:19;17.20;;;4.83;;
5351;SDS011;2698;51.454;6.736;2023-08-07T05:38:46;9.90;;;4.43;;
5351;SDS011;2698;51.454;6.736;2023-08-07T05:41:14;14.43;;;4.97;;
5351;SDS011;2698;51.454;6.736;2023-08-07T05:43:41;15.87;;;5.17;;
5351;SDS011;2698;51.454;6.736;2023-08-07T05:46:08;8.60;;;4.60;;
5351;SDS011;2698;51.454;6.736;2023-08-07T05:48:36;18.07;;;4.90;;
5351;SDS011;2698;51.454;6.736;2023-08-07T05:51:03;20.03;;;4.30;;
5351;SDS011;2698;51.454;6.736;2023-08-07T05:53:32;7.83;;;4.33;;
5351;SDS011;2698;51.454;6.736;2023-08-07T05:55:59;11.87;;;5.17;;
5351;SDS011;2698;51.454;6.736;2023-08-07T05:58:27;8.27;;;4.70;;
5351;SDS011;2698;51.454;6.736;2023-08-07T06:00:54;9.20;;;4.27;;
5351;SDS011;2698;51.454;6.736;2023-08-07T06:03:21;12.23;;;4.20;;
5351;SDS011;2698;51.454;6.736;2023-08-07T06:05:48;9.40;;;4.60;;
5351;SDS011;2698;51.454;6.736;2023-08-07T06:08:16;14.73;;;3.87;;
5351;SDS011;2698;51.454;6.736;2023-08-07T06:10:43;15.43;;;4.17;;
5351;SDS011;2698;51.454;6.736;2023-08-07T06:13:10;11.70;;;4.03;;
5351;SDS011;2698;51.454;6.736;2023-08-07T06:15:38;11.07;;;4.33;;
5351;SDS011;2698;51.454;6.736;2023-08-07T06:18:05;10.70;;;3.50;;
5351;SDS011;2698;51.454;6.736;2023-08-07T06:20:33;7.50;;;3.37;;
5351;SDS011;2698;51.454;6.736;2023-08-07T06:23:00;11.77;;;4.43;;
5351;SDS011;2698;51.454;6.736;2023-08-07T06:25:27;9.97;;;4.43;;
5351;SDS011;2698;51.454;6.736;2023-08-07T06:27:54;9.63;;;3.50;;
5351;SDS011;2698;51.454;6.736;2023-08-07T06:30:21;14.83;;;4.10;;
5351;SDS011;2698;51.454;6.736;2023-08-07T06:32:50;6.50;;;3.60;;
5351;SDS011;2698;51.454;6.736;2023-08-07T06:35:17;8.40;;;3.73;;
5351;SDS011;2698;51.454;6.736;2023-08-07T06:37:44;11.03;;;4.33;;
5351;SDS011;2698;51.454;6.736;2023-08-07T06:40:11;10.27;;;4.00;;
5351;SDS011;2698;51.454;6.736;2023-08-07T06:42:38;17.37;;;4.87;;
5351;SDS011;2698;51.454;6.736;2023-08-07T06:45:06;23.67;;;3.97;;
5351;SDS011;2698;51.454;6.736;2023-08-07T06:47:33;8.43;;;4.40;;
5351;SDS011;2698;51.454;6.736;2023-08-07T06:50:01;10.50;;;4.80;;
5351;SDS011;2698;51.454;6.736;2023-08-07T06:52:28;20.67;;;4.50;;
5351;SDS011;2698;51.454;6.736;2023-08-07T06:54:55;14.90;;;4.43;;
5351;SDS011;2698;51.454;6.736;2023-08-07T06:57:23;16.27;;;5.37;;
5351;SDS011;2698;51.454;6.736;2023-08-07T06:59:50;7.10;;;4.57;;
5351;SDS011;2698;51.454;6.736;2023-08-07T07:02:17;25.03;;;5.40;;
5351;SDS011;2698;51.454;6.736;2023-08-07T07:04:44;13.33;;;4.90;;
5351;SDS011;2698;51.454;6.736;2023-08-07T07:07:12;10.07;;;4.30;;
5351;SDS011;2698;51.454;6.736;2023-08-07T07:09:39;10.90;;;4.50;;
5351;SDS011;2698;51.454;6.736;2023-08-07T07:12:07;13.30;;;5.23;;
5351;SDS011;2698;51.454;6.736;2023-08-07T07:14:34;11.33;;;5.03;;
5351;SDS011;2698;51.454;6.736;2023-08-07T07:17:01;9.90;;;4.20;;
5351;SDS011;2698;51.454;6.736;2023-08-07T07:19:28;12.37;;;4.10;;
5351;SDS011;2698;51.454;6.736;2023-08-07T07:21:55;11.00;;;4.10;;
5351;SDS011;2698;51.454;6.736;2023-08-07T07:24:24;13.23;;;3.20;;
5351;SDS011;2698;51.454;6.736;2023-08-07T07:26:51;6.00;;;3.40;;
5351;SDS011;2698;51.454;6.736;2023-08-07T07:29:19;8.03;;;4.10;;
5351;SDS011;2698;51.454;6.736;2023-08-07T07:31:46;10.57;;;4.23;;
5351;SDS011;2698;51.454;6.736;2023-08-07T07:34:13;11.80;;;4.33;;
5351;SDS011;2698;51.454;6.736;2023-08-07T07:36:40;12.50;;;4.27;;
5351;SDS011;2698;51.454;6.736;2023-08-07T07:39:07;9.67;;;4.10;;
5351;SDS011;2698;51.454;6.736;2023-08-07T07:41:36;9.10;;;4.40;;
5351;SDS011;2698;51.454;6.736;2023-08-07T07:44:03;12.47;;;5.13;;
5351;SDS011;2698;51.454;6.736;2023-08-07T07:46:31;13.60;;;4.13;;
5351;SDS011;2698;51.454;6.736;2023-08-07T07:48:58;10.07;;;3.07;;
5351;SDS011;2698;51.454;6.736;2023-08-07T07:51:28;14.00;;;4.83;;
5351;SDS011;2698;51.454;6.736;2023-08-07T07:53:55;10.40;;;3.77;;
5351;SDS011;2698;51.454;6.736;2023-08-07T07:56:22;12.73;;;3.40;;
5351;SDS011;2698;51.454;6.736;2023-08-07T07:58:51;9.50;;;4.07;;
5351;SDS011;2698;51.454;6.736;2023-08-07T08:01:18;5.73;;;3.97;;
5351;SDS011;2698;51.454;6.736;2023-08-07T08:03:45;6.23;;;3.67;;
5351;SDS011;2698;51.454;6.736;2023-08-07T08:06:13;7.40;;;4.53;;
5351;SDS011;2698;51.454;6.736;2023-08-07T08:08:40;5.33;;;3.50;;
5351;SDS011;2698;51.454;6.736;2023-08-07T08:11:08;15.20;;;4.63;;
5351;SDS011;2698;51.454;6.736;2023-08-07T08:13:35;14.13;;;3.40;;
5351;SDS011;2698;51.454;6.736;2023-08-07T08:16:05;13.23;;;4.17;;
5351;SDS011;2698;51.454;6.736;2023-08-07T08:18:33;7.67;;;4.00;;
5351;SDS011;2698;51.454;6.736;2023-08-07T08:21:00;12.60;;;4.03;;
5351;SDS011;2698;51.454;6.736;2023-08-07T08:23:27;10.43;;;4.33;;
5351;SDS011;2698;51.454;6.736;2023-08-07T08:25:57;12.53;;;4.33;;
5351;SDS011;2698;51.454;6.736;2023-08-07T08:28:24;14.80;;;4.17;;
5351;SDS011;2698;51.454;6.736;2023-08-07T08:30:52;6.93;;;4.03;;
5351;SDS011;2698;51.454;6.736;2023-08-07T08:33:20;9.10;;;3.80;;
5351;SDS011;2698;51.454;6.736;2023-08-07T08:35:48;11.50;;;3.73;;
5351;SDS011;2698;51.454;6.736;2023-08-07T08:38:15;10.07;;;4.40;;
5351;SDS011;2698;51.454;6.736;2023-08-07T08:40:43;7.70;;;3.20;;
5351;SDS011;2698;51.454;6.736;2023-08-07T08:43:11;16.50;;;4.03;;
5351;SDS011;2698;51.454;6.736;2023-08-07T08:45:39;12.50;;;3.90;;
5351;SDS011;2698;51.454;6.736;2023-08-07T08:48:08;13.63;;;3.53;;
5351;SDS011;2698;51.454;6.736;2023-08-07T08:50:42;10.30;;;3.27;;
5351;SDS011;2698;51.454;6.736;2023-08-07T08:53:10;13.10;;;4.40;;
5351;SDS011;2698;51.454;6.736;2023-08-07T08:55:37;8.33;;;2.70;;
5351;SDS011;2698;51.454;6.736;2023-08-07T08:58:08;6.83;;;3.10;;
5351;SDS011;2698;51.454;6.736;2023-08-07T09:00:35;8.70;;;2.87;;
5351;SDS011;2698;51.454;6.736;2023-08-07T09:03:03;14.60;;;3.80;;
5351;SDS011;2698;51.454;6.736;2023-08-07T09:05:33;11.97;;;4.37;;
5351;SDS011;2698;51.454;6.736;2023-08-07T09:08:03;4.70;;;3.20;;
5351;SDS011;2698;51.454;6.736;2023-08-07T09:10:32;19.73;;;4.00;;
5351;SDS011;2698;51.454;6.736;2023-08-07T09:13:00;20.20;;;4.07;;
5351;SDS011;2698;51.454;6.736;2023-08-07T09:15:29;14.00;;;4.00;;
5351;SDS011;2698;51.454;6.736;2023-08-07T09:17:57;18.90;;;5.00;;
5351;SDS011;2698;51.454;6.736;2023-08-07T09:20:24;11.97;;;4.13;;
5351;SDS011;2698;51.454;6.736;2023-08-07T09:22:52;8.80;;;3.80;;
5351;SDS011;2698;51.454;6.736;2023-08-07T09:25:27;8.93;;;4.70;;
5351;SDS011;2698;51.454;6.736;2023-08-07T09:27:54;18.97;;;3.87;;
5351;SDS011;2698;51.454;6.736;2023-08-07T09:30:25;9.97;;;4.07;;
5351;SDS011;2698;51.454;6.736;2023-08-07T09:32:52;14.57;;;4.80;;
5351;SDS011;2698;51.454;6.736;2023-08-07T09:35:20;8.10;;;3.80;;
5351;SDS011;2698;51.454;6.736;2023-08-07T09:37:48;14.83;;;5.60;;
5351;SDS011;2698;51.454;6.736;2023-08-07T09:40:15;15.70;;;5.07;;
5351;SDS011;2698;51.454;6.736;2023-08-07T09:42:43;16.10;;;4.43;;
5351;SDS011;2698;51.454;6.736;2023-08-07T09:47:57;11.93;;;4.17;;
5351;SDS011;2698;51.454;6.736;2023-08-07T09:50:24;10.70;;;4.80;;
5351;SDS011;2698;51.454;6.736;2023-08-07T09:52:52;11.10;;;3.90;;
5351;SDS011;2698;51.454;6.736;2023-08-07T09:55:19;7.80;;;4.47;;
5351;SDS011;2698;51.454;6.736;2023-08-07T09:57:48;9.20;;;3.57;;
5351;SDS011;2698;51.454;6.736;2023-08-07T10:00:18;13.70;;;3.80;;
5351;SDS011;2698;51.454;6.736;2023-08-07T10:02:46;12.00;;;4.30;;
5351;SDS011;2698;51.454;6.736;2023-08-07T10:05:14;11.20;;;4.53;;
5351;SDS011;2698;51.454;6.736;2023-08-07T10:07:41;11.43;;;3.60;;
5351;SDS011;2698;51.454;6.736;2023-08-07T10:10:09;11.23;;;3.57;;
5351;SDS011;2698;51.454;6.736;2023-08-07T10:12:37;12.40;;;4.23;;
5351;SDS011;2698;51.454;6.736;2023-08-07T10:15:07;14.20;;;4.20;;
5351;SDS011;2698;51.454;6.736;2023-08-07T10:17:34;17.27;;;3.97;;
5351;SDS011;2698;51.454;6.736;2023-08-07T10:20:02;11.73;;;3.97;;
5351;SDS011;2698;51.454;6.736;2023-08-07T10:22:30;10.90;;;3.50;;
5351;SDS011;2698;51.454;6.736;2023-08-07T10:24:59;7.90;;;3.37;;
5351;SDS011;2698;51.454;6.736;2023-08-07T10:27:29;10.87;;;3.50;;
5351;SDS011;2698;51.454;6.736;2023-08-07T10:29:56;9.27;;;4.00;;
5351;SDS011;2698;51.454;6.736;2023-08-07T10:32:25;10.57;;;3.90;;
5351;SDS011;2698;51.454;6.736;2023-08-07T10:34:53;22.23;;;5.23;;
5351;SDS011;2698;51.454;6.736;2023-08-07T10:37:31;19.87;;;4.50;;
5351;SDS011;2698;51.454;6.736;2023-08-07T10:40:03;12.37;;;3.67;;
5351;SDS011;2698;51.454;6.736;2023-08-07T10:42:33;20.40;;;4.30;;
5351;SDS011;2698;51.454;6.736;2023-08-07T10:45:16;12.07;;;4.40;;
5351;SDS011;2698;51.454;6.736;2023-08-07T10:47:57;10.17;;;4.80;;
5351;SDS011;2698;51.454;6.736;2023-08-07T10:50:28;19.30;;;4.80;;
5351;SDS011;2698;51.454;6.736;2023-08-07T10:52:56;17.63;;;4.93;;
5351;SDS011;2698;51.454;6.736;2023-08-07T10:55:23;13.90;;;4.70;;
5351;SDS011;2698;51.454;6.736;2023-08-07T10:57:57;8.47;;;4.23;;
5351;SDS011;2698;51.454;6.736;2023-08-07T11:00:25;13.03;;;5.07;;
5351;SDS011;2698;51.454;6.736;2023-08-07T11:02:53;15.27;;;5.47;;
5351;SDS011;2698;51.454;6.736;2023-08-07T11:05:21;13.37;;;5.30;;
5351;SDS011;2698;51.454;6.736;2023-08-07T11:07:50;13.63;;;4.10;;
5351;SDS011;2698;51.454;6.736;2023-08-07T11:10:18;19.73;;;4.10;;
5351;SDS011;2698;51.454;6.736;2023-08-07T11:12:45;13.43;;;5.10;;
5351;SDS011;2698;51.454;6.736;2023-08-07T11:15:12;11.37;;;4.20;;
5351;SDS011;2698;51.454;6.736;2023-08-07T11:17:43;13.53;;;4.20;;
5351;SDS011;2698;51.454;6.736;2023-08-07T11:20:11;12.27;;;3.97;;
5351;SDS011;2698;51.454;6.736;2023-08-07T11:22:44;7.27;;;4.33;;
5351;SDS011;2698;51.454;6.736;2023-08-07T11:25:17;16.87;;;4.57;;
5351;SDS011;2698;51.454;6.736;2023-08-07T11:27:49;18.43;;;4.33;;
5351;SDS011;2698;51.454;6.736;2023-08-07T11:30:23;13.80;;;5.53;;
5351;SDS011;2698;51.454;6.736;2023-08-07T11:32:50;13.63;;;4.60;;
5351;SDS011;2698;51.454;6.736;2023-08-07T11:35:18;10.53;;;3.70;;
5351;SDS011;2698;51.454;6.736;2023-08-07T11:37:48;18.93;;;3.37;;
5351;SDS011;2698;51.454;6.736;2023-08-07T11:40:18;12.43;;;3.50;;
5351;SDS011;2698;51.454;6.736;2023-08-07T11:42:45;13.27;;;3.70;;
5351;SDS011;2698;51.454;6.736;2023-08-07T11:45:12;13.03;;;3.43;;
5351;SDS011;2698;51.454;6.736;2023-08-07T11:47:40;12.20;;;4.53;;
5351;SDS011;2698;51.454;6.736;2023-08-07T11:50:09;15.10;;;4.20;;
5351;SDS011;2698;51.454;6.736;2023-08-07T11:52:39;12.00;;;4.17;;
5351;SDS011;2698;51.454;6.736;2023-08-07T11:55:08;20.17;;;3.80;;
5351;SDS011;2698;51.454;6.736;2023-08-07T11:57:37;18.27;;;3.27;;
5351;SDS011;2698;51.454;6.736;2023-08-07T12:00:10;14.80;;;2.77;;
5351;SDS011;2698;51.454;6.736;2023-08-07T12:02:41;11.73;;;3.57;;
5351;SDS011;2698;51.454;6.736;2023-08-07T12:05:09;9.27;;;3.30;;
5351;SDS011;2698;51.454;6.736;2023-08-07T12:07:37;8.30;;;3.03;;
5351;SDS011;2698;51.454;6.736;2023-08-07T12:10:08;14.13;;;3.60;;
5351;SDS011;2698;51.454;6.736;2023-08-07T12:12:35;9.73;;;2.53;;
5351;SDS011;2698;51.454;6.736;2023-08-07T12:15:03;10.90;;;3.00;;
5351;SDS011;2698;51.454;6.736;2023-08-07T12:17:31;10.60;;;4.17;;
5351;SDS011;2698;51.454;6.736;2023-08-07T12:19:58;10.33;;;2.63;;
5351;SDS011;2698;51.454;6.736;2023-08-07T12:22:26;10.50;;;3.10;;
5351;SDS011;2698;51.454;6.736;2023-08-07T12:24:54;7.57;;;2.70;;
5351;SDS011;2698;51.454;6.736;2023-08-07T12:27:23;9.17;;;3.13;;
5351;SDS011;2698;51.454;6.736;2023-08-07T12:29:51;5.80;;;3.30;;
5351;SDS011;2698;51.454;6.736;2023-08-07T12:32:18;13.20;;;2.77;;
5351;SDS011;2698;51.454;6.736;2023-08-07T12:34:45;14.73;;;3.20;;
5351;SDS011;2698;51.454;6.736;2023-08-07T12:37:15;7.00;;;3.00;;
5351;SDS011;2698;51.454;6.736;2023-08-07T12:39:42;5.13;;;2.40;;
5351;SDS011;2698;51.454;6.736;2023-08-07T12:42:09;11.80;;;3.30;;
5351;SDS011;2698;51.454;6.736;2023-08-07T12:44:37;5.23;;;2.73;;
5351;SDS011;2698;51.454;6.736;2023-08-07T12:47:05;11.30;;;3.30;;
5351;SDS011;2698;51.454;6.736;2023-08-07T12:49:32;9.07;;;2.60;;
5351;SDS011;2698;51.454;6.736;2023-08-07T12:51:59;6.50;;;2.60;;
5351;SDS011;2698;51.454;6.736;2023-08-07T12:54:26;6.57;;;2.33;;
5351;SDS011;2698;51.454;6.736;2023-08-07T12:56:53;15.37;;;3.90;;
5351;SDS011;2698;51.454;6.736;2023-08-07T12:59:21;3.53;;;2.57;;
5351;SDS011;2698;51.454;6.736;2023-08-07T13:01:50;12.60;;;2.53;;
5351;SDS011;2698;51.454;6.736;2023-08-07T13:04:19;8.67;;;2.27;;
5351;SDS011;2698;51.454;6.736;2023-08-07T13:06:46;9.00;;;2.63;;
5351;SDS011;2698;51.454;6.736;2023-08-07T13:09:19;4.40;;;2.83;;
5351;SDS011;2698;51.454;6.736;2023-08-07T13:11:49;12.23;;;3.00;;
5351;SDS011;2698;51.454;6.736;2023-08-07T13:14:18;9.13;;;2.80;;
5351;SDS011;2698;51.454;6.736;2023-08-07T13:16:46;4.77;;;2.50;;
5351;SDS011;2698;51.454;6.736;2023-08-07T13:19:15;4.07;;;2.10;;
5351;SDS011;2698;51.454;6.736;2023-08-07T13:21:47;15.83;;;2.90;;
5351;SDS011;2698;51.454;6.736;2023-08-07T13:24:14;3.73;;;2.57;;
5351;SDS011;2698;51.454;6.736;2023-08-07T13:26:41;6.23;;;2.50;;
5351;SDS011;2698;51.454;6.736;2023-08-07T13:29:09;10.10;;;2.37;;
5351;SDS011;2698;51.454;6.736;2023-08-07T13:31:37;4.47;;;2.33;;
5351;SDS011;2698;51.454;6.736;2023-08-07T13:34:06;14.60;;;2.90;;
5351;SDS011;2698;51.454;6.736;2023-08-07T13:36:37;4.00;;;2.20;;
5351;SDS011;2698;51.454;6.736;2023-08-07T13:39:08;5.63;;;2.50;;
5351;SDS011;2698;51.454;6.736;2023-08-07T13:41:36;5.47;;;3.00;;
5351;SDS011;2698;51.454;6.736;2023-08-07T13:44:03;9.33;;;2.67;;
5351;SDS011;2698;51.454;6.736;2023-08-07T13:46:30;6.27;;;2.40;;
5351;SDS011;2698;51.454;6.736;2023-08-07T13:48:57;5.73;;;2.87;;
5351;SDS011;2698;51.454;6.736;2023-08-07T13:51:27;3.83;;;2.37;;
5351;SDS011;2698;51.454;6.736;2023-08-07T13:53:55;9.73;;;2.93;;
5351;SDS011;2698;51.454;6.736;2023-08-07T13:56:23;7.43;;;2.50;;
5351;SDS011;2698;51.454;6.736;2023-08-07T13:58:50;4.27;;;2.00;;
5351;SDS011;2698;51.454;6.736;2023-08-07T14:01:19;6.30;;;2.50;;
5351;SDS011;2698;51.454;6.736;2023-08-07T14:03:49;4.73;;;3.07;;
5351;SDS011;2698;51.454;6.736;2023-08-07T14:06:16;7.07;;;3.03;;
5351;SDS011;2698;51.454;6.736;2023-08-07T14:08:43;7.80;;;2.33;;
5351;SDS011;2698;51.454;6.736;2023-08-07T14:11:13;3.80;;;1.83;;
5351;SDS011;2698;51.454;6.736;2023-08-07T14:13:41;6.80;;;2.70;;
5351;SDS011;2698;51.454;6.736;2023-08-07T14:16:09;4.80;;;1.53;;
5351;SDS011;2698;51.454;6.736;2023-08-07T14:18:36;9.30;;;2.40;;
5351;SDS011;2698;51.454;6.736;2023-08-07T14:21:03;2.70;;;2.03;;
5351;SDS011;2698;51.454;6.736;2023-08-07T14:23:38;5.23;;;2.60;;
5351;SDS011;2698;51.454;6.736;2023-08-07T14:26:07;3.63;;;2.30;;
5351;SDS011;2698;51.454;6.736;2023-08-07T14:28:36;5.10;;;2.13;;
5351;SDS011;2698;51.454;6.736;2023-08-07T14:31:07;4.80;;;2.13;;
5351;SDS011;2698;51.454;6.736;2023-08-07T14:33:34;1.90;;;1.80;;
5351;SDS011;2698;51.454;6.736;2023-08-07T14:36:01;3.10;;;2.53;;
5351;SDS011;2698;51.454;6.736;2023-08-07T14:38:28;3.43;;;2.50;;
5351;SDS011;2698;51.454;6.736;2023-08-07T14:40:56;6.17;;;1.97;;
5351;SDS011;2698;51.454;6.736;2023-08-07T14:43:24;3.33;;;2.33;;
5351;SDS011;2698;51.454;6.736;2023-08-07T14:45:52;4.67;;;2.13;;
5351;SDS011;2698;51.454;6.736;2023-08-07T14:48:20;2.60;;;2.40;;
5351;SDS011;2698;51.454;6.736;2023-08-07T14:50:47;2.57;;;2.37;;
5351;SDS011;2698;51.454;6.736;2023-08-07T14:53:14;2.63;;;2.20;;
5351;SDS011;2698;51.454;6.736;2023-08-07T14:55:41;3.33;;;2.27;;
5351;SDS011;2698;51.454;6.736;2023-08-07T14:58:08;4.07;;;2.00;;
5351;SDS011;2698;51.454;6.736;2023-08-07T15:00:35;6.37;;;2.67;;
5351;SDS011;2698;51.454;6.736;2023-08-07T15:03:03;6.80;;;2.50;;
5351;SDS011;2698;51.454;6.736;2023-08-07T15:05:30;3.30;;;2.20;;
5351;SDS011;2698;51.454;6.736;2023-08-07T15:07:59;4.80;;;2.70;;
5351;SDS011;2698;51.454;6.736;2023-08-07T15:10:26;5.70;;;2.70;;
5351;SDS011;2698;51.454;6.736;2023-08-07T15:12:54;4.53;;;2.80;;
5351;SDS011;2698;51.454;6.736;2023-08-07T15:15:21;9.73;;;3.00;;